sensor_id;sensor_type;location;lat;lon;timestamp;P1;durP1;ratioP1;P2;durP2;ratioP2
29380;SDS011;16364;52.490;13.326;2023-04-23T00:01:32;8.70;;;7.90;;
29380;SDS011;16364;52.490;13.326;2023-04-23T00:03:59;9.50;;;8.37;;
29380;SDS011;16364;52.490;13.326;2023-04-23T00:06:24;9.90;;;8.80;;
29380;SDS011;16364;52.490;13.326;2023-04-23T00:08:52;9.20;;;8.40;;
29380;SDS011;16364;52.490;13.326;2023-04-23T00:11:19;8.50;;;7.67;;
29380;SDS011;16364;52.490;13.326;2023-04-23T00:13:45;8.00;;;7.30;;
29380;SDS011;16364;52.490;13.326;2023-04-23T00:16:11;11.67;;;8.30;;
29380;SDS011;16364;52.490;13.326;2023-04-23T00:18:37;8.40;;;7.77;;
29380;SDS011;16364;52.490;13.326;2023-04-23T00:21:02;10.73;;;9.33;;
29380;SDS011;16364;52.490;13.326;2023-04-23T00:23:28;8.43;;;7.63;;
29380;SDS011;16364;52.490;13.326;2023-04-23T00:25:54;7.97;;;7.27;;
29380;SDS011;16364;52.490;13.326;2023-04-23T00:28:19;9.47;;;8.67;;
29380;SDS011;16364;52.490;13.326;2023-04-23T00:30:44;8.00;;;7.27;;
29380;SDS011;16364;52.490;13.326;2023-04-23T00:33:10;9.40;;;8.63;;
29380;SDS011;16364;52.490;13.326;2023-04-23T00:35:35;8.70;;;7.93;;
29380;SDS011;16364;52.490;13.326;2023-04-23T00:38:00;8.93;;;7.53;;
29380;SDS011;16364;52.490;13.326;2023-04-23T00:40:26;9.20;;;8.50;;
29380;SDS011;16364;52.490;13.326;2023-04-23T00:42:51;8.37;;;7.70;;
29380;SDS011;16364;52.490;13.326;2023-04-23T00:45:18;8.13;;;7.43;;
29380;SDS011;16364;52.490;13.326;2023-04-23T00:47:43;10.37;;;9.37;;
29380;SDS011;16364;52.490;13.326;2023-04-23T00:50:10;7.57;;;6.93;;
29380;SDS011;16364;52.490;13.326;2023-04-23T00:52:35;8.80;;;8.10;;
29380;SDS011;16364;52.490;13.326;2023-04-23T00:55:03;9.63;;;8.73;;
29380;SDS011;16364;52.490;13.326;2023-04-23T00:57:28;8.77;;;7.90;;
29380;SDS011;16364;52.490;13.326;2023-04-23T00:59:54;8.50;;;7.70;;
29380;SDS011;16364;52.490;13.326;2023-04-23T01:02:22;9.03;;;8.07;;
29380;SDS011;16364;52.490;13.326;2023-04-23T01:04:47;9.60;;;8.80;;
29380;SDS011;16364;52.490;13.326;2023-04-23T01:07:15;8.40;;;7.80;;
29380;SDS011;16364;52.490;13.326;2023-04-23T01:09:40;8.70;;;8.00;;
29380;SDS011;16364;52.490;13.326;2023-04-23T01:12:06;11.50;;;10.50;;
29380;SDS011;16364;52.490;13.326;2023-04-23T01:14:31;9.30;;;8.27;;
29380;SDS011;16364;52.490;13.326;2023-04-23T01:16:58;9.77;;;8.60;;
29380;SDS011;16364;52.490;13.326;2023-04-23T01:19:23;9.43;;;8.53;;
29380;SDS011;16364;52.490;13.326;2023-04-23T01:21:49;9.80;;;8.90;;
29380;SDS011;16364;52.490;13.326;2023-04-23T01:24:15;10.80;;;9.90;;
29380;SDS011;16364;52.490;13.326;2023-04-23T01:26:40;9.77;;;8.77;;
29380;SDS011;16364;52.490;13.326;2023-04-23T01:29:06;10.00;;;8.80;;
29380;SDS011;16364;52.490;13.326;2023-04-23T01:31:31;9.47;;;8.57;;
29380;SDS011;16364;52.490;13.326;2023-04-23T01:33:57;9.43;;;8.50;;
29380;SDS011;16364;52.490;13.326;2023-04-23T01:36:23;10.10;;;9.30;;
29380;SDS011;16364;52.490;13.326;2023-04-23T01:38:48;11.50;;;10.43;;
29380;SDS011;16364;52.490;13.326;2023-04-23T01:41:13;10.17;;;9.17;;
29380;SDS011;16364;52.490;13.326;2023-04-23T01:43:40;9.23;;;8.50;;
29380;SDS011;16364;52.490;13.326;2023-04-23T01:46:05;9.73;;;8.83;;
29380;SDS011;16364;52.490;13.326;2023-04-23T01:48:31;11.23;;;10.23;;
29380;SDS011;16364;52.490;13.326;2023-04-23T01:50:56;10.10;;;9.20;;
29380;SDS011;16364;52.490;13.326;2023-04-23T01:53:21;9.77;;;8.87;;
29380;SDS011;16364;52.490;13.326;2023-04-23T01:55:47;11.10;;;9.83;;
29380;SDS011;16364;52.490;13.326;2023-04-23T01:58:12;10.63;;;9.57;;
29380;SDS011;16364;52.490;13.326;2023-04-23T02:00:38;10.57;;;9.47;;
29380;SDS011;16364;52.490;13.326;2023-04-23T02:03:03;10.83;;;9.60;;
29380;SDS011;16364;52.490;13.326;2023-04-23T02:05:28;11.10;;;10.00;;
29380;SDS011;16364;52.490;13.326;2023-04-23T02:07:54;10.77;;;9.80;;
29380;SDS011;16364;52.490;13.326;2023-04-23T02:10:19;12.47;;;9.80;;
29380;SDS011;16364;52.490;13.326;2023-04-23T02:12:45;10.23;;;9.30;;
29380;SDS011;16364;52.490;13.326;2023-04-23T02:15:10;12.07;;;10.60;;
29380;SDS011;16364;52.490;13.326;2023-04-23T02:17:36;12.03;;;10.83;;
29380;SDS011;16364;52.490;13.326;2023-04-23T02:20:01;11.20;;;10.10;;
29380;SDS011;16364;52.490;13.326;2023-04-23T02:22:27;13.10;;;10.13;;
29380;SDS011;16364;52.490;13.326;2023-04-23T02:24:52;11.47;;;10.30;;
29380;SDS011;16364;52.490;13.326;2023-04-23T02:27:18;10.50;;;9.53;;
29380;SDS011;16364;52.490;13.326;2023-04-23T02:29:43;11.20;;;10.10;;
29380;SDS011;16364;52.490;13.326;2023-04-23T02:32:08;11.90;;;10.60;;
29380;SDS011;16364;52.490;13.326;2023-04-23T02:34:34;12.80;;;11.07;;
29380;SDS011;16364;52.490;13.326;2023-04-23T02:37:00;11.00;;;10.10;;
29380;SDS011;16364;52.490;13.326;2023-04-23T02:39:25;12.30;;;10.83;;
29380;SDS011;16364;52.490;13.326;2023-04-23T02:41:50;11.50;;;10.40;;
29380;SDS011;16364;52.490;13.326;2023-04-23T02:44:16;11.10;;;10.20;;
29380;SDS011;16364;52.490;13.326;2023-04-23T02:46:41;12.10;;;11.00;;
29380;SDS011;16364;52.490;13.326;2023-04-23T02:49:06;10.90;;;9.80;;
29380;SDS011;16364;52.490;13.326;2023-04-23T02:51:31;10.70;;;9.80;;
29380;SDS011;16364;52.490;13.326;2023-04-23T02:53:57;10.63;;;9.73;;
29380;SDS011;16364;52.490;13.326;2023-04-23T02:56:22;11.77;;;10.73;;
29380;SDS011;16364;52.490;13.326;2023-04-23T02:58:47;10.77;;;9.83;;
29380;SDS011;16364;52.490;13.326;2023-04-23T03:01:13;11.83;;;10.80;;
29380;SDS011;16364;52.490;13.326;2023-04-23T03:03:38;10.97;;;9.87;;
29380;SDS011;16364;52.490;13.326;2023-04-23T03:06:03;11.30;;;10.23;;
29380;SDS011;16364;52.490;13.326;2023-04-23T03:08:30;11.97;;;10.53;;
29380;SDS011;16364;52.490;13.326;2023-04-23T03:10:55;10.37;;;9.47;;
29380;SDS011;16364;52.490;13.326;2023-04-23T03:13:21;10.63;;;9.53;;
29380;SDS011;16364;52.490;13.326;2023-04-23T03:15:46;10.50;;;9.40;;
29380;SDS011;16364;52.490;13.326;2023-04-23T03:18:11;11.00;;;10.00;;
29380;SDS011;16364;52.490;13.326;2023-04-23T03:20:37;11.17;;;10.07;;
29380;SDS011;16364;52.490;13.326;2023-04-23T03:23:02;11.07;;;9.90;;
29380;SDS011;16364;52.490;13.326;2023-04-23T03:25:30;13.60;;;12.30;;
29380;SDS011;16364;52.490;13.326;2023-04-23T03:27:56;14.60;;;11.00;;
29380;SDS011;16364;52.490;13.326;2023-04-23T03:30:22;10.13;;;8.80;;
29380;SDS011;16364;52.490;13.326;2023-04-23T03:32:48;11.30;;;10.20;;
29380;SDS011;16364;52.490;13.326;2023-04-23T03:35:14;9.53;;;8.73;;
29380;SDS011;16364;52.490;13.326;2023-04-23T03:37:39;9.20;;;8.40;;
29380;SDS011;16364;52.490;13.326;2023-04-23T03:40:05;11.53;;;9.67;;
29380;SDS011;16364;52.490;13.326;2023-04-23T03:42:31;10.37;;;9.47;;
29380;SDS011;16364;52.490;13.326;2023-04-23T03:44:56;9.40;;;8.60;;
29380;SDS011;16364;52.490;13.326;2023-04-23T03:47:22;12.07;;;8.20;;
29380;SDS011;16364;52.490;13.326;2023-04-23T03:49:47;9.77;;;8.80;;
29380;SDS011;16364;52.490;13.326;2023-04-23T03:52:12;9.50;;;8.70;;
29380;SDS011;16364;52.490;13.326;2023-04-23T03:54:37;9.57;;;8.77;;
29380;SDS011;16364;52.490;13.326;2023-04-23T03:57:02;9.90;;;9.00;;
29380;SDS011;16364;52.490;13.326;2023-04-23T03:59:28;9.90;;;7.97;;
29380;SDS011;16364;52.490;13.326;2023-04-23T04:01:53;10.80;;;9.50;;
29380;SDS011;16364;52.490;13.326;2023-04-23T04:04:18;10.67;;;9.67;;
29380;SDS011;16364;52.490;13.326;2023-04-23T04:06:43;10.00;;;9.03;;
29380;SDS011;16364;52.490;13.326;2023-04-23T04:09:09;10.17;;;9.30;;
29380;SDS011;16364;52.490;13.326;2023-04-23T04:11:34;10.77;;;9.87;;
29380;SDS011;16364;52.490;13.326;2023-04-23T04:13:59;10.47;;;9.57;;
29380;SDS011;16364;52.490;13.326;2023-04-23T04:16:25;9.57;;;8.70;;
29380;SDS011;16364;52.490;13.326;2023-04-23T04:18:50;11.53;;;10.33;;
29380;SDS011;16364;52.490;13.326;2023-04-23T04:21:15;10.07;;;9.20;;
29380;SDS011;16364;52.490;13.326;2023-04-23T04:23:42;9.80;;;8.90;;
29380;SDS011;16364;52.490;13.326;2023-04-23T04:26:07;11.23;;;10.27;;
29380;SDS011;16364;52.490;13.326;2023-04-23T04:28:32;10.97;;;9.87;;
29380;SDS011;16364;52.490;13.326;2023-04-23T04:31:00;15.03;;;10.63;;
29380;SDS011;16364;52.490;13.326;2023-04-23T04:33:26;10.70;;;9.77;;
29380;SDS011;16364;52.490;13.326;2023-04-23T04:35:51;10.23;;;9.23;;
29380;SDS011;16364;52.490;13.326;2023-04-23T04:38:16;10.10;;;9.30;;
29380;SDS011;16364;52.490;13.326;2023-04-23T04:40:42;10.30;;;9.40;;
29380;SDS011;16364;52.490;13.326;2023-04-23T04:43:07;10.50;;;9.50;;
29380;SDS011;16364;52.490;13.326;2023-04-23T04:45:34;11.00;;;9.90;;
29380;SDS011;16364;52.490;13.326;2023-04-23T04:47:59;12.73;;;10.17;;
29380;SDS011;16364;52.490;13.326;2023-04-23T04:50:24;11.13;;;10.13;;
29380;SDS011;16364;52.490;13.326;2023-04-23T04:52:49;11.10;;;10.10;;
29380;SDS011;16364;52.490;13.326;2023-04-23T04:55:15;10.93;;;9.73;;
29380;SDS011;16364;52.490;13.326;2023-04-23T04:57:40;10.00;;;8.93;;
29380;SDS011;16364;52.490;13.326;2023-04-23T05:03:00;9.60;;;8.70;;
29380;SDS011;16364;52.490;13.326;2023-04-23T05:05:25;10.40;;;9.40;;
29380;SDS011;16364;52.490;13.326;2023-04-23T05:07:51;9.23;;;8.43;;
29380;SDS011;16364;52.490;13.326;2023-04-23T05:10:19;11.20;;;9.87;;
29380;SDS011;16364;52.490;13.326;2023-04-23T05:12:45;8.63;;;7.90;;
29380;SDS011;16364;52.490;13.326;2023-04-23T05:15:11;10.50;;;9.23;;
29380;SDS011;16364;52.490;13.326;2023-04-23T05:17:37;8.97;;;8.17;;
29380;SDS011;16364;52.490;13.326;2023-04-23T05:20:02;9.47;;;8.63;;
29380;SDS011;16364;52.490;13.326;2023-04-23T05:22:28;8.87;;;8.13;;
29380;SDS011;16364;52.490;13.326;2023-04-23T05:24:54;8.53;;;7.50;;
29380;SDS011;16364;52.490;13.326;2023-04-23T05:27:19;10.10;;;7.33;;
29380;SDS011;16364;52.490;13.326;2023-04-23T05:29:44;8.87;;;7.67;;
29380;SDS011;16364;52.490;13.326;2023-04-23T05:32:10;7.70;;;6.97;;
29380;SDS011;16364;52.490;13.326;2023-04-23T05:34:35;8.80;;;8.00;;
29380;SDS011;16364;52.490;13.326;2023-04-23T05:37:01;10.47;;;8.23;;
29380;SDS011;16364;52.490;13.326;2023-04-23T05:39:26;8.17;;;7.37;;
29380;SDS011;16364;52.490;13.326;2023-04-23T05:41:52;8.90;;;8.10;;
29380;SDS011;16364;52.490;13.326;2023-04-23T05:44:17;8.77;;;7.97;;
29380;SDS011;16364;52.490;13.326;2023-04-23T05:46:42;13.17;;;7.80;;
29380;SDS011;16364;52.490;13.326;2023-04-23T05:49:07;8.00;;;7.30;;
29380;SDS011;16364;52.490;13.326;2023-04-23T05:51:32;8.70;;;7.90;;
29380;SDS011;16364;52.490;13.326;2023-04-23T05:53:58;9.43;;;7.30;;
29380;SDS011;16364;52.490;13.326;2023-04-23T05:56:23;8.13;;;7.33;;
29380;SDS011;16364;52.490;13.326;2023-04-23T05:58:48;7.83;;;7.13;;
29380;SDS011;16364;52.490;13.326;2023-04-23T06:01:13;8.97;;;8.17;;
29380;SDS011;16364;52.490;13.326;2023-04-23T06:03:39;11.33;;;7.60;;
29380;SDS011;16364;52.490;13.326;2023-04-23T06:06:09;9.40;;;8.60;;
29380;SDS011;16364;52.490;13.326;2023-04-23T06:08:34;9.57;;;8.67;;
29380;SDS011;16364;52.490;13.326;2023-04-23T06:10:59;8.77;;;8.07;;
29380;SDS011;16364;52.490;13.326;2023-04-23T06:13:25;7.67;;;7.17;;
29380;SDS011;16364;52.490;13.326;2023-04-23T06:15:52;11.63;;;7.73;;
29380;SDS011;16364;52.490;13.326;2023-04-23T06:18:17;8.27;;;7.67;;
29380;SDS011;16364;52.490;13.326;2023-04-23T06:20:42;9.00;;;8.27;;
29380;SDS011;16364;52.490;13.326;2023-04-23T06:23:10;9.50;;;8.53;;
29380;SDS011;16364;52.490;13.326;2023-04-23T06:25:35;9.70;;;7.80;;
29380;SDS011;16364;52.490;13.326;2023-04-23T06:28:00;9.00;;;8.10;;
29380;SDS011;16364;52.490;13.326;2023-04-23T06:30:25;8.47;;;7.63;;
29380;SDS011;16364;52.490;13.326;2023-04-23T06:32:51;8.70;;;7.90;;
29380;SDS011;16364;52.490;13.326;2023-04-23T06:35:16;8.40;;;7.60;;
29380;SDS011;16364;52.490;13.326;2023-04-23T06:37:41;9.47;;;7.23;;
29380;SDS011;16364;52.490;13.326;2023-04-23T06:40:06;8.00;;;7.37;;
29380;SDS011;16364;52.490;13.326;2023-04-23T06:42:32;8.20;;;7.40;;
29380;SDS011;16364;52.490;13.326;2023-04-23T06:44:57;9.83;;;7.50;;
29380;SDS011;16364;52.490;13.326;2023-04-23T06:47:23;8.57;;;7.77;;
29380;SDS011;16364;52.490;13.326;2023-04-23T06:49:48;8.80;;;8.10;;
29380;SDS011;16364;52.490;13.326;2023-04-23T06:52:14;8.67;;;7.30;;
29380;SDS011;16364;52.490;13.326;2023-04-23T06:54:40;8.33;;;7.60;;
29380;SDS011;16364;52.490;13.326;2023-04-23T06:57:05;8.90;;;8.00;;
29380;SDS011;16364;52.490;13.326;2023-04-23T06:59:30;7.93;;;7.23;;
29380;SDS011;16364;52.490;13.326;2023-04-23T07:01:57;11.20;;;7.73;;
29380;SDS011;16364;52.490;13.326;2023-04-23T07:04:22;9.80;;;7.87;;
29380;SDS011;16364;52.490;13.326;2023-04-23T07:06:47;8.63;;;6.63;;
29380;SDS011;16364;52.490;13.326;2023-04-23T07:09:12;7.90;;;7.20;;
29380;SDS011;16364;52.490;13.326;2023-04-23T07:11:38;8.33;;;7.10;;
29380;SDS011;16364;52.490;13.326;2023-04-23T07:14:03;7.90;;;7.10;;
29380;SDS011;16364;52.490;13.326;2023-04-23T07:16:28;7.70;;;7.10;;
29380;SDS011;16364;52.490;13.326;2023-04-23T07:18:57;7.67;;;6.73;;
29380;SDS011;16364;52.490;13.326;2023-04-23T07:21:22;8.83;;;7.93;;
29380;SDS011;16364;52.490;13.326;2023-04-23T07:23:49;9.80;;;7.37;;
29380;SDS011;16364;52.490;13.326;2023-04-23T07:26:14;8.77;;;7.17;;
29380;SDS011;16364;52.490;13.326;2023-04-23T07:28:40;7.40;;;6.60;;
29380;SDS011;16364;52.490;13.326;2023-04-23T07:31:05;7.53;;;6.83;;
29380;SDS011;16364;52.490;13.326;2023-04-23T07:33:31;7.07;;;6.47;;
29380;SDS011;16364;52.490;13.326;2023-04-23T07:35:57;11.33;;;7.07;;
29380;SDS011;16364;52.490;13.326;2023-04-23T07:38:22;8.10;;;7.30;;
29380;SDS011;16364;52.490;13.326;2023-04-23T07:40:47;8.47;;;7.47;;
29380;SDS011;16364;52.490;13.326;2023-04-23T07:43:12;8.53;;;7.40;;
29380;SDS011;16364;52.490;13.326;2023-04-23T07:45:38;8.43;;;7.73;;
29380;SDS011;16364;52.490;13.326;2023-04-23T07:48:03;7.37;;;6.60;;
29380;SDS011;16364;52.490;13.326;2023-04-23T07:50:28;9.50;;;7.37;;
29380;SDS011;16364;52.490;13.326;2023-04-23T07:52:54;9.20;;;7.87;;
29380;SDS011;16364;52.490;13.326;2023-04-23T07:55:19;7.00;;;6.40;;
29380;SDS011;16364;52.490;13.326;2023-04-23T07:57:45;8.20;;;7.40;;
29380;SDS011;16364;52.490;13.326;2023-04-23T08:00:11;9.17;;;7.37;;
29380;SDS011;16364;52.490;13.326;2023-04-23T08:02:38;9.03;;;7.70;;
29380;SDS011;16364;52.490;13.326;2023-04-23T08:05:03;10.20;;;7.90;;
29380;SDS011;16364;52.490;13.326;2023-04-23T08:07:29;8.13;;;7.40;;
29380;SDS011;16364;52.490;13.326;2023-04-23T08:09:55;13.87;;;7.83;;
29380;SDS011;16364;52.490;13.326;2023-04-23T08:12:20;8.33;;;7.53;;
29380;SDS011;16364;52.490;13.326;2023-04-23T08:14:45;10.07;;;8.70;;
29380;SDS011;16364;52.490;13.326;2023-04-23T08:17:11;8.33;;;7.60;;
29380;SDS011;16364;52.490;13.326;2023-04-23T08:19:36;7.37;;;6.77;;
29380;SDS011;16364;52.490;13.326;2023-04-23T08:22:01;11.00;;;7.47;;
29380;SDS011;16364;52.490;13.326;2023-04-23T08:24:27;9.00;;;7.73;;
29380;SDS011;16364;52.490;13.326;2023-04-23T08:26:52;8.73;;;7.93;;
29380;SDS011;16364;52.490;13.326;2023-04-23T08:29:17;7.30;;;6.70;;
29380;SDS011;16364;52.490;13.326;2023-04-23T08:31:44;7.87;;;7.17;;
29380;SDS011;16364;52.490;13.326;2023-04-23T08:34:09;9.53;;;8.63;;
29380;SDS011;16364;52.490;13.326;2023-04-23T08:36:35;6.97;;;6.40;;
29380;SDS011;16364;52.490;13.326;2023-04-23T08:39:00;9.77;;;7.93;;
29380;SDS011;16364;52.490;13.326;2023-04-23T08:41:26;10.47;;;7.20;;
29380;SDS011;16364;52.490;13.326;2023-04-23T08:46:56;7.70;;;6.53;;
29380;SDS011;16364;52.490;13.326;2023-04-23T08:49:22;7.27;;;6.67;;
29380;SDS011;16364;52.490;13.326;2023-04-23T08:51:49;7.30;;;6.60;;
29380;SDS011;16364;52.490;13.326;2023-04-23T08:54:25;9.63;;;8.47;;
29380;SDS011;16364;52.490;13.326;2023-04-23T08:56:52;9.43;;;8.10;;
29380;SDS011;16364;52.490;13.326;2023-04-23T08:59:19;9.53;;;8.53;;
29380;SDS011;16364;52.490;13.326;2023-04-23T09:01:47;9.33;;;8.33;;
29380;SDS011;16364;52.490;13.326;2023-04-23T09:04:12;9.20;;;8.30;;
29380;SDS011;16364;52.490;13.326;2023-04-23T09:06:44;8.03;;;7.00;;
29380;SDS011;16364;52.490;13.326;2023-04-23T09:09:09;8.47;;;7.77;;
29380;SDS011;16364;52.490;13.326;2023-04-23T09:11:36;10.50;;;9.00;;
29380;SDS011;16364;52.490;13.326;2023-04-23T09:14:03;9.37;;;8.33;;
29380;SDS011;16364;52.490;13.326;2023-04-23T09:16:28;9.47;;;8.60;;
29380;SDS011;16364;52.490;13.326;2023-04-23T09:18:53;8.27;;;7.47;;
29380;SDS011;16364;52.490;13.326;2023-04-23T09:21:19;8.27;;;7.50;;
29380;SDS011;16364;52.490;13.326;2023-04-23T09:23:44;7.80;;;7.10;;
29380;SDS011;16364;52.490;13.326;2023-04-23T09:26:10;6.63;;;6.03;;
29380;SDS011;16364;52.490;13.326;2023-04-23T09:28:43;6.20;;;5.60;;
29380;SDS011;16364;52.490;13.326;2023-04-23T09:31:08;6.00;;;5.60;;
29380;SDS011;16364;52.490;13.326;2023-04-23T09:33:34;7.13;;;5.23;;
29380;SDS011;16364;52.490;13.326;2023-04-23T09:36:04;6.87;;;5.80;;
29380;SDS011;16364;52.490;13.326;2023-04-23T09:38:29;5.70;;;5.20;;
29380;SDS011;16364;52.490;13.326;2023-04-23T09:40:54;5.90;;;5.40;;
29380;SDS011;16364;52.490;13.326;2023-04-23T09:43:22;4.97;;;4.47;;
29380;SDS011;16364;52.490;13.326;2023-04-23T09:45:50;4.30;;;4.00;;
29380;SDS011;16364;52.490;13.326;2023-04-23T09:48:17;3.77;;;3.57;;
29380;SDS011;16364;52.490;13.326;2023-04-23T09:50:42;3.60;;;3.30;;
29380;SDS011;16364;52.490;13.326;2023-04-23T09:53:08;4.03;;;3.13;;
29380;SDS011;16364;52.490;13.326;2023-04-23T09:55:34;5.37;;;3.70;;
29380;SDS011;16364;52.490;13.326;2023-04-23T09:58:06;4.07;;;3.77;;
29380;SDS011;16364;52.490;13.326;2023-04-23T10:00:35;3.37;;;3.07;;
29380;SDS011;16364;52.490;13.326;2023-04-23T10:03:01;3.40;;;3.10;;
29380;SDS011;16364;52.490;13.326;2023-04-23T10:05:27;3.70;;;3.37;;
29380;SDS011;16364;52.490;13.326;2023-04-23T10:07:54;3.50;;;3.30;;
29380;SDS011;16364;52.490;13.326;2023-04-23T10:10:20;5.03;;;4.67;;
29380;SDS011;16364;52.490;13.326;2023-04-23T10:12:46;4.87;;;4.47;;
29380;SDS011;16364;52.490;13.326;2023-04-23T10:15:12;4.50;;;4.10;;
29380;SDS011;16364;52.490;13.326;2023-04-23T10:17:38;5.60;;;5.10;;
29380;SDS011;16364;52.490;13.326;2023-04-23T10:20:06;5.00;;;4.60;;
29380;SDS011;16364;52.490;13.326;2023-04-23T10:22:32;6.90;;;6.13;;
29380;SDS011;16364;52.490;13.326;2023-04-23T10:24:57;7.73;;;6.93;;
29380;SDS011;16364;52.490;13.326;2023-04-23T10:27:28;10.07;;;7.27;;
29380;SDS011;16364;52.490;13.326;2023-04-23T10:29:53;9.77;;;8.50;;
29380;SDS011;16364;52.490;13.326;2023-04-23T10:32:19;8.63;;;7.67;;
29380;SDS011;16364;52.490;13.326;2023-04-23T10:34:46;10.50;;;9.13;;
29380;SDS011;16364;52.490;13.326;2023-04-23T10:37:12;10.83;;;8.70;;
29380;SDS011;16364;52.490;13.326;2023-04-23T10:39:39;13.10;;;10.67;;
29380;SDS011;16364;52.490;13.326;2023-04-23T10:42:07;11.97;;;8.97;;
29380;SDS011;16364;52.490;13.326;2023-04-23T10:44:33;12.10;;;8.90;;
29380;SDS011;16364;52.490;13.326;2023-04-23T10:47:03;10.23;;;9.13;;
29380;SDS011;16364;52.490;13.326;2023-04-23T10:49:30;10.33;;;8.70;;
29380;SDS011;16364;52.490;13.326;2023-04-23T10:52:00;10.50;;;9.03;;
29380;SDS011;16364;52.490;13.326;2023-04-23T10:54:28;9.13;;;7.73;;
29380;SDS011;16364;52.490;13.326;2023-04-23T10:56:56;12.43;;;9.40;;
29380;SDS011;16364;52.490;13.326;2023-04-23T10:59:22;10.80;;;9.40;;
29380;SDS011;16364;52.490;13.326;2023-04-23T11:01:48;10.07;;;8.50;;
29380;SDS011;16364;52.490;13.326;2023-04-23T11:11:54;11.40;;;10.30;;
29380;SDS011;16364;52.490;13.326;2023-04-23T11:14:58;10.50;;;9.33;;
29380;SDS011;16364;52.490;13.326;2023-04-23T11:18:02;14.07;;;8.33;;
29380;SDS011;16364;52.490;13.326;2023-04-23T11:20:17;9.43;;;8.43;;
29380;SDS011;16364;52.490;13.326;2023-04-23T11:22:43;13.63;;;8.33;;
29380;SDS011;16364;52.490;13.326;2023-04-23T11:25:12;9.93;;;8.93;;
29380;SDS011;16364;52.490;13.326;2023-04-23T11:27:38;9.40;;;8.00;;
29380;SDS011;16364;52.490;13.326;2023-04-23T11:30:05;11.33;;;9.20;;
29380;SDS011;16364;52.490;13.326;2023-04-23T11:32:31;9.43;;;8.43;;
29380;SDS011;16364;52.490;13.326;2023-04-23T11:34:56;9.77;;;8.37;;
29380;SDS011;16364;52.490;13.326;2023-04-23T11:37:22;11.50;;;8.80;;
29380;SDS011;16364;52.490;13.326;2023-04-23T11:39:49;9.67;;;7.60;;
29380;SDS011;16364;52.490;13.326;2023-04-23T11:42:15;9.00;;;6.73;;
29380;SDS011;16364;52.490;13.326;2023-04-23T11:44:42;8.10;;;7.37;;
29380;SDS011;16364;52.490;13.326;2023-04-23T11:47:08;7.20;;;6.23;;
29380;SDS011;16364;52.490;13.326;2023-04-23T11:49:44;7.30;;;6.57;;
29380;SDS011;16364;52.490;13.326;2023-04-23T11:52:10;5.53;;;5.03;;
29380;SDS011;16364;52.490;13.326;2023-04-23T11:54:35;4.83;;;4.33;;
29380;SDS011;16364;52.490;13.326;2023-04-23T11:57:00;4.90;;;4.50;;
29380;SDS011;16364;52.490;13.326;2023-04-23T11:59:28;4.30;;;3.90;;
29380;SDS011;16364;52.490;13.326;2023-04-23T12:01:54;4.80;;;4.30;;
29380;SDS011;16364;52.490;13.326;2023-04-23T12:04:21;3.67;;;3.37;;
29380;SDS011;16364;52.490;13.326;2023-04-23T12:06:48;3.33;;;3.03;;
29380;SDS011;16364;52.490;13.326;2023-04-23T12:09:16;3.10;;;2.90;;
29380;SDS011;16364;52.490;13.326;2023-04-23T12:11:42;5.33;;;2.70;;
29380;SDS011;16364;52.490;13.326;2023-04-23T12:14:08;2.67;;;2.47;;
29380;SDS011;16364;52.490;13.326;2023-04-23T12:16:38;2.97;;;2.77;;
29380;SDS011;16364;52.490;13.326;2023-04-23T12:19:03;2.23;;;2.10;;
29380;SDS011;16364;52.490;13.326;2023-04-23T12:21:31;1.97;;;1.77;;
29380;SDS011;16364;52.490;13.326;2023-04-23T12:23:58;1.97;;;1.73;;
29380;SDS011;16364;52.490;13.326;2023-04-23T12:26:23;2.53;;;2.10;;
29380;SDS011;16364;52.490;13.326;2023-04-23T12:28:53;2.30;;;2.10;;
29380;SDS011;16364;52.490;13.326;2023-04-23T12:31:22;2.03;;;1.60;;
29380;SDS011;16364;52.490;13.326;2023-04-23T12:33:55;1.80;;;1.70;;
29380;SDS011;16364;52.490;13.326;2023-04-23T12:36:24;1.80;;;1.70;;
29380;SDS011;16364;52.490;13.326;2023-04-23T12:38:51;1.63;;;1.53;;
29380;SDS011;16364;52.490;13.326;2023-04-23T12:41:20;1.90;;;1.80;;
29380;SDS011;16364;52.490;13.326;2023-04-23T12:43:45;2.47;;;1.60;;
29380;SDS011;16364;52.490;13.326;2023-04-23T12:46:12;1.70;;;1.60;;
29380;SDS011;16364;52.490;13.326;2023-04-23T12:48:38;1.87;;;1.60;;
29380;SDS011;16364;52.490;13.326;2023-04-23T12:51:03;2.10;;;1.80;;
29380;SDS011;16364;52.490;13.326;2023-04-23T12:53:30;1.87;;;1.73;;
29380;SDS011;16364;52.490;13.326;2023-04-23T12:55:55;1.90;;;1.47;;
29380;SDS011;16364;52.490;13.326;2023-04-23T12:58:20;2.13;;;1.93;;
29380;SDS011;16364;52.490;13.326;2023-04-23T13:00:46;2.07;;;1.93;;
29380;SDS011;16364;52.490;13.326;2023-04-23T13:03:11;1.60;;;1.50;;
29380;SDS011;16364;52.490;13.326;2023-04-23T13:05:39;1.70;;;1.40;;
29380;SDS011;16364;52.490;13.326;2023-04-23T13:08:04;1.67;;;1.57;;
29380;SDS011;16364;52.490;13.326;2023-04-23T13:10:30;1.60;;;1.50;;
29380;SDS011;16364;52.490;13.326;2023-04-23T13:12:55;1.20;;;1.10;;
29380;SDS011;16364;52.490;13.326;2023-04-23T13:15:20;1.93;;;1.63;;
29380;SDS011;16364;52.490;13.326;2023-04-23T13:17:45;1.80;;;1.70;;
29380;SDS011;16364;52.490;13.326;2023-04-23T13:20:10;1.80;;;1.70;;
29380;SDS011;16364;52.490;13.326;2023-04-23T13:22:36;2.63;;;1.77;;
29380;SDS011;16364;52.490;13.326;2023-04-23T13:25:01;1.97;;;1.77;;
29380;SDS011;16364;52.490;13.326;2023-04-23T13:27:27;1.70;;;1.60;;
29380;SDS011;16364;52.490;13.326;2023-04-23T13:29:53;2.10;;;1.93;;
29380;SDS011;16364;52.490;13.326;2023-04-23T13:32:18;1.80;;;1.70;;
29380;SDS011;16364;52.490;13.326;2023-04-23T13:34:43;2.10;;;1.90;;
29380;SDS011;16364;52.490;13.326;2023-04-23T13:37:09;2.10;;;1.90;;
29380;SDS011;16364;52.490;13.326;2023-04-23T13:39:35;2.10;;;1.80;;
29380;SDS011;16364;52.490;13.326;2023-04-23T13:42:00;2.57;;;2.37;;
29380;SDS011;16364;52.490;13.326;2023-04-23T13:44:28;1.93;;;1.83;;
29380;SDS011;16364;52.490;13.326;2023-04-23T13:46:53;2.00;;;1.90;;
29380;SDS011;16364;52.490;13.326;2023-04-23T13:49:19;3.13;;;1.97;;
29380;SDS011;16364;52.490;13.326;2023-04-23T13:51:45;2.10;;;1.90;;
29380;SDS011;16364;52.490;13.326;2023-04-23T13:54:13;2.60;;;2.40;;
29380;SDS011;16364;52.490;13.326;2023-04-23T13:56:47;1.90;;;1.70;;
29380;SDS011;16364;52.490;13.326;2023-04-23T13:59:13;1.80;;;1.70;;
29380;SDS011;16364;52.490;13.326;2023-04-23T14:01:39;2.10;;;1.90;;
29380;SDS011;16364;52.490;13.326;2023-04-23T14:04:05;1.70;;;1.60;;
29380;SDS011;16364;52.490;13.326;2023-04-23T14:06:30;2.10;;;2.00;;
29380;SDS011;16364;52.490;13.326;2023-04-23T14:08:55;2.87;;;1.93;;
29380;SDS011;16364;52.490;13.326;2023-04-23T14:11:22;2.40;;;2.30;;
29380;SDS011;16364;52.490;13.326;2023-04-23T14:13:47;2.83;;;2.40;;
29380;SDS011;16364;52.490;13.326;2023-04-23T14:16:13;2.43;;;1.90;;
29380;SDS011;16364;52.490;13.326;2023-04-23T14:18:39;1.80;;;1.70;;
29380;SDS011;16364;52.490;13.326;2023-04-23T14:21:05;2.13;;;1.70;;
29380;SDS011;16364;52.490;13.326;2023-04-23T14:26:02;1.97;;;1.77;;
29380;SDS011;16364;52.490;13.326;2023-04-23T14:28:28;2.00;;;1.87;;
29380;SDS011;16364;52.490;13.326;2023-04-23T14:30:57;1.90;;;1.57;;
29380;SDS011;16364;52.490;13.326;2023-04-23T14:33:22;1.70;;;1.60;;
29380;SDS011;16364;52.490;13.326;2023-04-23T14:35:47;2.23;;;1.80;;
29380;SDS011;16364;52.490;13.326;2023-04-23T14:38:14;2.00;;;1.87;;